Time;durP1;ratioP1;P1;durP2;ratioP2;P2;SDS_P1;SDS_P2;PMS_P1;PMS_P2;Temp;Humidity;BMP_temperature;BMP_pressure;BME280_temperature;BME280_humidity;BME280_pressure;Samples;Min_cycle;Max_cycle;Signal;HPM_P1;HPM_P2
2022/06/07 00:02:54;;;;;;;12.10;10.88;;;18.10;99.90;;;;;;10418573;28;20244;-80
2022/06/07 00:08:18;;;;;;;15.25;13.75;;;18.10;99.90;;;;;;10420783;28;20444;-81
2022/06/07 00:13:40;;;;;;;13.18;11.82;;;18.00;99.90;;;;;;10434086;28;20205;-85
2022/06/07 00:19:01;;;;;;;13.77;12.38;;;18.10;99.90;;;;;;10401877;28;20205;-81
2022/06/07 00:24:23;;;;;;;13.95;12.43;;;18.10;99.90;;;;;;10395081;28;20220;-81
2022/06/07 00:29:46;;;;;;;13.75;12.32;;;18.10;99.90;;;;;;10421177;28;20278;-83
2022/06/07 00:35:08;;;;;;;13.60;12.15;;;18.20;99.90;;;;;;10421954;28;20196;-80
2022/06/07 00:40:30;;;;;;;12.77;11.57;;;18.10;99.90;;;;;;10435998;28;20196;-80
2022/06/07 00:45:51;;;;;;;13.60;12.20;;;18.10;99.90;;;;;;10407894;28;20201;-80
2022/06/07 00:51:13;;;;;;;17.98;15.85;;;18.00;99.90;;;;;;10367384;28;20197;-80
2022/06/07 00:56:35;;;;;;;16.17;14.50;;;17.90;99.90;;;;;;10380606;28;20515;-83
2022/06/07 01:01:58;;;;;;;16.83;14.55;;;17.80;99.90;;;;;;10394392;28;20230;-84
2022/06/07 01:13:05;;;;;;;16.52;14.82;;;17.90;99.90;;;;;;10394228;28;20189;-79
2022/06/07 01:18:27;;;;;;;15.73;14.02;;;17.90;99.90;;;;;;10394166;28;20197;-80
2022/06/07 01:23:49;;;;;;;15.90;14.35;;;17.80;99.90;;;;;;10393922;28;20287;-80
2022/06/07 01:29:15;;;;;;;15.50;14.02;;;17.80;99.90;;;;;;10417046;28;20231;-85
2022/06/07 01:34:42;;;;;;;18.67;16.75;;;17.80;99.90;;;;;;10421305;28;20389;-80
2022/06/07 01:45:45;;;;;;;18.27;16.48;;;17.70;99.90;;;;;;10427946;28;20272;-80
2022/06/07 01:51:09;;;;;;;19.02;17.15;;;17.60;99.90;;;;;;10400926;28;20217;-79
2022/06/07 01:56:31;;;;;;;21.73;19.52;;;17.60;99.90;;;;;;10386543;28;20268;-80
2022/06/07 02:01:53;;;;;;;20.60;18.50;;;17.50;99.90;;;;;;10386282;28;20299;-81
2022/06/07 02:07:15;;;;;;;18.08;16.27;;;17.50;99.90;;;;;;10385684;28;20228;-79
2022/06/07 02:12:42;;;;;;;17.00;15.30;;;17.40;99.90;;;;;;10400152;28;20219;-82
2022/06/07 02:18:03;;;;;;;17.52;15.73;;;17.40;99.90;;;;;;10385943;28;20268;-81
2022/06/07 02:23:37;;;;;;;17.92;16.10;;;17.50;99.90;;;;;;10385523;28;20229;-83
2022/06/07 02:29:11;;;;;;;17.75;15.73;;;17.50;99.90;;;;;;10399427;28;20252;-81
2022/06/07 02:34:34;;;;;;;17.30;15.52;;;17.50;99.90;;;;;;10399078;28;20248;-82
2022/06/07 02:39:56;;;;;;;18.77;16.85;;;17.40;99.90;;;;;;10398644;28;20255;-87
2022/06/07 02:45:18;;;;;;;19.42;17.38;;;17.40;99.90;;;;;;10384864;28;20228;-87
2022/06/07 02:50:39;;;;;;;19.77;17.77;;;17.40;99.90;;;;;;10384576;28;20192;-81
2022/06/07 02:56:00;;;;;;;17.02;15.27;;;17.30;99.90;;;;;;10398361;28;20193;-80
2022/06/07 03:01:23;;;;;;;18.35;16.52;;;17.40;99.90;;;;;;10370774;28;20412;-83
2022/06/07 03:06:44;;;;;;;17.98;16.08;;;17.40;99.90;;;;;;10383758;28;20217;-86
2022/06/07 03:12:07;;;;;;;17.17;15.38;;;17.40;99.90;;;;;;10384404;28;20203;-82
2022/06/07 03:17:30;;;;;;;17.00;15.35;;;17.50;99.90;;;;;;10398257;28;20205;-81
2022/06/07 03:22:53;;;;;;;14.02;12.73;;;17.50;99.90;;;;;;10369893;28;20228;-83
2022/06/07 03:28:15;;;;;;;16.58;14.57;;;17.50;99.90;;;;;;10397068;28;20624;-83
2022/06/07 03:33:38;;;;;;;13.50;11.90;;;17.50;99.90;;;;;;10383428;28;20224;-84
2022/06/07 03:39:04;;;;;;;13.45;12.10;;;17.50;99.90;;;;;;10369381;28;20275;-82
2022/06/07 03:44:28;;;;;;;15.90;14.20;;;17.60;99.90;;;;;;10397180;28;20220;-80
2022/06/07 03:50:16;;;;;;;14.55;13.15;;;17.70;99.90;;;;;;10396193;28;20205;-82
2022/06/07 03:55:44;;;;;;;16.48;14.73;;;17.70;99.90;;;;;;10382250;28;20271;-80
2022/06/07 04:01:15;;;;;;;14.88;13.38;;;17.70;99.90;;;;;;10380467;28;20458;-81
2022/06/07 04:08:10;;;;;;;15.75;14.20;;;17.70;99.90;;;;;;10388614;28;20231;-82
2022/06/07 04:12:39;;;;;;;16.95;15.20;;;17.70;99.90;;;;;;10395731;28;20408;-81
2022/06/07 04:18:01;;;;;;;16.88;15.18;;;17.80;99.90;;;;;;10380993;28;20563;-86
2022/06/07 04:23:28;;;;;;;16.73;15.02;;;17.70;99.90;;;;;;10395092;28;20432;-79
2022/06/07 04:28:50;;;;;;;19.33;16.10;;;17.70;99.90;;;;;;10402210;28;20252;-79
2022/06/07 04:34:13;;;;;;;16.88;15.18;;;17.70;99.90;;;;;;10401126;28;20196;-79
2022/06/07 04:39:36;;;;;;;16.80;14.63;;;17.70;99.90;;;;;;10384495;28;20204;-80
2022/06/07 04:45:03;;;;;;;16.27;14.68;;;17.70;99.90;;;;;;10381403;28;20299;-80
2022/06/07 04:50:45;;;;;;;16.50;14.80;;;17.70;99.90;;;;;;10383378;28;20227;-79
2022/06/07 04:56:17;;;;;;;19.80;17.75;;;17.60;99.90;;;;;;10394619;28;20201;-80
2022/06/07 05:01:42;;;;;;;21.00;17.10;;;17.60;99.90;;;;;;10380688;28;20271;-80
2022/06/07 05:07:10;;;;;;;17.55;15.75;;;17.70;99.90;;;;;;10379937;28;20434;-79
2022/06/07 05:12:44;;;;;;;18.30;16.20;;;17.70;99.90;;;;;;10384943;28;20462;-81
2022/06/07 05:18:12;;;;;;;17.98;16.15;;;17.80;99.90;;;;;;10387627;28;20507;-79
2022/06/07 05:23:38;;;;;;;19.20;17.33;;;17.80;99.90;;;;;;10401779;28;20217;-80
2022/06/07 05:29:02;;;;;;;20.33;18.13;;;18.00;99.90;;;;;;10387113;28;20225;-79
2022/06/07 05:34:27;;;;;;;18.35;16.45;;;18.10;99.90;;;;;;10401095;28;20197;-81
2022/06/07 05:39:50;;;;;;;20.15;18.05;;;18.40;99.90;;;;;;10401243;28;20394;-79
2022/06/07 05:45:12;;;;;;;18.38;15.73;;;18.50;99.90;;;;;;10386718;28;20279;-80
2022/06/07 05:50:35;;;;;;;17.88;15.57;;;18.60;99.90;;;;;;10386677;28;20231;-80
2022/06/07 05:56:07;;;;;;;16.35;14.65;;;18.70;99.90;;;;;;10386032;28;20660;-80
2022/06/07 06:01:29;;;;;;;14.00;12.52;;;18.80;99.90;;;;;;10386321;28;20269;-80
2022/06/07 06:06:58;;;;;;;15.48;13.95;;;18.90;99.90;;;;;;10400092;28;20201;-81
2022/06/07 06:12:25;;;;;;;13.98;11.27;;;19.10;99.90;;;;;;10400241;28;20189;-81
2022/06/07 06:17:56;;;;;;;19.05;13.10;;;19.30;99.90;;;;;;10385308;28;20197;-79
2022/06/07 06:23:24;;;;;;;18.63;13.20;;;19.50;99.90;;;;;;10398912;28;20545;-79
2022/06/07 06:28:48;;;;;;;14.93;12.20;;;19.60;90.10;;;;;;10347776;28;20237;-83
2022/06/07 06:34:11;;;;;;;13.73;12.32;;;20.20;47.80;;;;;;10365040;28;20200;-80
2022/06/07 06:39:34;;;;;;;15.48;13.77;;;20.40;54.20;;;;;;10384553;28;20223;-81
2022/06/07 06:44:55;;;;;;;13.15;11.18;;;20.80;44.20;;;;;;10368608;28;20274;-80
2022/06/07 06:50:17;;;;;;;14.38;11.90;;;21.50;48.50;;;;;;10382194;28;20196;-82
2022/06/07 06:55:43;;;;;;;12.23;10.48;;;22.10;28.30;;;;;;10366136;28;20220;-83
2022/06/07 07:01:14;;;;;;;17.73;11.80;;;22.20;29.50;;;;;;10371249;28;20189;-81
2022/06/07 07:06:38;;;;;;;17.85;15.95;;;21.90;35.00;;;;;;10379231;28;20251;-81
2022/06/07 07:11:59;;;;;;;19.35;14.95;;;21.40;38.20;;;;;;10378174;28;20209;-81
2022/06/07 07:17:30;;;;;;;22.45;18.05;;;21.30;1.00;;;;;;10378908;28;20232;-80
2022/06/07 07:22:53;;;;;;;21.17;18.23;;;22.00;1.00;;;;;;10377729;28;20233;-82
2022/06/07 07:28:15;;;;;;;21.90;17.95;;;22.70;1.00;;;;;;10403182;28;20244;-80
2022/06/07 07:33:36;;;;;;;20.30;17.20;;;23.10;99.90;;;;;;10419353;28;20250;-81
2022/06/07 07:38:58;;;;;;;23.67;17.30;;;23.60;99.90;;;;;;10418375;28;20205;-80
2022/06/07 07:44:21;;;;;;;20.70;16.67;;;23.70;99.90;;;;;;10349941;28;20244;-80
2022/06/07 07:49:47;;;;;;;20.65;18.55;;;24.10;99.90;;;;;;10349984;28;20190;-82
2022/06/07 07:55:11;;;;;;;19.63;17.42;;;24.10;99.90;;;;;;10350921;28;20285;-79
2022/06/07 08:00:33;;;;;;;16.88;15.23;;;24.00;99.90;;;;;;10379177;28;20193;-81
2022/06/07 08:06:00;;;;;;;21.75;17.75;;;24.30;99.90;;;;;;10376331;28;20281;-80
2022/06/07 08:11:26;;;;;;;18.13;16.25;;;23.90;99.90;;;;;;10377016;28;20201;-82
2022/06/07 08:16:49;;;;;;;17.80;15.95;;;23.50;99.90;;;;;;10392596;28;20201;-85
2022/06/07 08:22:11;;;;;;;18.83;16.83;;;24.20;99.90;;;;;;10359061;28;20228;-83
2022/06/07 08:27:33;;;;;;;18.23;15.82;;;24.80;99.40;;;;;;10363158;28;20233;-82
2022/06/07 08:32:55;;;;;;;14.05;12.38;;;25.20;98.10;;;;;;10375912;28;20203;-83
2022/06/07 08:38:17;;;;;;;14.90;13.45;;;25.80;97.50;;;;;;10376695;28;20202;-80
2022/06/07 08:43:38;;;;;;;18.23;13.45;;;25.70;96.60;;;;;;10389468;28;20239;-79
2022/06/07 08:49:00;;;;;;;13.80;12.15;;;26.00;95.30;;;;;;10396108;28;20215;-80
2022/06/07 08:54:26;;;;;;;11.55;10.32;;;26.40;94.60;;;;;;10397348;28;20514;-80
2022/06/07 08:59:50;;;;;;;12.07;10.30;;;26.80;92.70;;;;;;10399753;28;20192;-81
2022/06/07 09:05:15;;;;;;;11.73;10.45;;;26.90;91.50;;;;;;10398484;28;20225;-82
2022/06/07 09:16:21;;;;;;;11.60;9.57;;;27.60;86.30;;;;;;10399156;28;20224;-84
2022/06/07 09:21:46;;;;;;;13.35;9.55;;;27.90;81.70;;;;;;10370502;28;20224;-84
2022/06/07 09:27:20;;;;;;;9.90;8.60;;;28.10;78.70;;;;;;10396347;28;20220;-89
2022/06/07 09:32:42;;;;;;;9.18;8.10;;;28.10;76.40;;;;;;10344823;28;20244;-85
2022/06/07 09:38:27;;;;;;;7.93;7.22;;;27.90;76.20;;;;;;10342598;28;20269;-82
2022/06/07 09:43:48;;;;;;;7.95;6.50;;;28.10;72.90;;;;;;10369874;28;20245;-86
2022/06/07 09:49:24;;;;;;;7.70;6.32;;;28.50;57.10;;;;;;10355711;28;20518;-83
2022/06/07 09:54:51;;;;;;;5.80;5.20;;;28.50;48.40;;;;;;10356652;28;20233;-86
2022/06/07 10:00:24;;;;;;;5.35;4.85;;;28.80;43.20;;;;;;10381635;28;20197;-84
2022/06/07 10:06:07;;;;;;;5.53;5.03;;;28.80;37.90;;;;;;10395508;28;20283;-87
2022/06/07 10:11:35;;;;;;;7.22;5.10;;;29.00;39.50;;;;;;10396165;28;20491;-84
2022/06/07 10:17:25;;;;;;;7.45;5.82;;;29.50;36.00;;;;;;10367870;28;20400;-82
2022/06/07 10:23:05;;;;;;;5.72;4.60;;;29.80;30.40;;;;;;10396428;28;20247;-85
2022/06/07 10:28:49;;;;;;;5.97;4.78;;;30.10;28.30;;;;;;10412651;28;20264;-84
2022/06/07 10:34:26;;;;;;;9.20;4.63;;;30.20;26.30;;;;;;10366570;28;20256;-86
2022/06/07 10:40:02;;;;;;;5.25;4.10;;;30.40;26.40;;;;;;10360210;28;20253;-83
2022/06/07 10:45:27;;;;;;;3.60;3.30;;;30.50;23.90;;;;;;10353372;28;20300;-83
2022/06/07 10:50:51;;;;;;;4.10;3.70;;;30.50;22.20;;;;;;10353067;28;20201;-82
2022/06/07 10:56:29;;;;;;;4.70;3.95;;;29.90;21.00;;;;;;10353773;28;20525;-83
2022/06/07 11:02:00;;;;;;;4.03;3.67;;;29.50;21.20;;;;;;10379284;28;20276;-81
2022/06/07 11:13:32;;;;;;;4.78;3.70;;;29.80;20.40;;;;;;10393308;28;20192;-84
2022/06/07 11:18:54;;;;;;;3.83;3.22;;;29.20;20.90;;;;;;10364152;28;20259;-82
2022/06/07 11:24:22;;;;;;;3.25;2.95;;;28.50;21.40;;;;;;10339088;28;20241;-83
2022/06/07 11:29:43;;;;;;;3.08;2.72;;;28.50;19.80;;;;;;10372158;28;20244;-83
2022/06/07 11:35:42;;;;;;;6.38;4.85;;;28.00;21.20;;;;;;10393207;28;20196;-82
2022/06/07 11:41:41;;;;;;;3.20;2.90;;;27.60;22.10;;;;;;10377614;28;20264;-85
2022/06/07 11:47:14;;;;;;;3.22;2.88;;;27.60;23.10;;;;;;10378429;28;20221;-83
2022/06/07 11:52:53;;;;;;;4.40;2.63;;;27.70;21.40;;;;;;10377611;28;20210;-83
2022/06/07 11:58:15;;;;;;;3.22;2.60;;;28.00;20.90;;;;;;10364706;28;20225;-86
2022/06/07 12:03:37;;;;;;;3.20;2.47;;;27.60;20.40;;;;;;10370412;28;20222;-84
2022/06/07 12:09:05;;;;;;;4.72;3.00;;;27.30;21.20;;;;;;10322521;28;20209;-82
2022/06/07 12:14:35;;;;;;;3.58;3.15;;;27.00;22.10;;;;;;10350505;28;20514;-82
2022/06/07 12:19:58;;;;;;;4.75;3.03;;;26.80;22.70;;;;;;10359779;28;20264;-81
2022/06/07 12:25:22;;;;;;;3.63;2.90;;;26.50;24.40;;;;;;10376382;28;20539;-81
2022/06/07 12:30:44;;;;;;;3.42;3.08;;;26.10;26.10;;;;;;10398319;28;20209;-83
2022/06/07 12:36:17;;;;;;;4.97;3.20;;;25.80;26.80;;;;;;10377718;28;20193;-84
2022/06/07 12:41:53;;;;;;;5.47;4.13;;;25.70;28.00;;;;;;10376959;28;20201;-86
2022/06/07 12:47:26;;;;;;;7.90;3.47;;;25.60;28.50;;;;;;10390589;28;20263;-80
2022/06/07 12:52:53;;;;;;;4.35;3.20;;;25.70;29.60;;;;;;10373038;28;20217;-82
2022/06/07 12:58:19;;;;;;;3.30;3.00;;;26.10;29.20;;;;;;10375610;28;20273;-81
2022/06/07 13:03:41;;;;;;;2.80;2.60;;;26.20;27.30;;;;;;10375284;28;20224;-82
2022/06/07 13:09:17;;;;;;;5.68;3.05;;;26.20;26.70;;;;;;10391230;28;20201;-84
2022/06/07 13:14:39;;;;;;;3.15;2.58;;;26.10;26.30;;;;;;10392279;28;20201;-81
2022/06/07 13:20:02;;;;;;;2.40;2.20;;;25.90;27.00;;;;;;10369046;28;20501;-81
2022/06/07 13:25:30;;;;;;;2.95;2.38;;;26.00;25.90;;;;;;10400734;28;20258;-81
2022/06/07 13:30:54;;;;;;;3.65;2.50;;;26.10;25.60;;;;;;10389056;28;20206;-85
2022/06/07 13:36:39;;;;;;;3.00;2.60;;;26.40;24.70;;;;;;10384709;28;20514;-84
2022/06/07 13:42:23;;;;;;;2.75;2.55;;;26.60;26.00;;;;;;10384919;28;20228;-85
2022/06/07 13:48:00;;;;;;;2.60;1.83;;;26.30;23.80;;;;;;10395924;28;20193;-83
2022/06/07 13:53:55;;;;;;;4.53;2.33;;;26.00;24.70;;;;;;10397870;28;20217;-82
2022/06/07 14:06:43;;;;;;;5.32;2.10;;;25.20;26.70;;;;;;10396077;28;20296;-82
2022/06/07 14:12:05;;;;;;;2.28;1.67;;;24.80;27.80;;;;;;10381622;28;20244;-83
2022/06/07 14:17:27;;;;;;;2.72;2.03;;;24.40;29.80;;;;;;10381152;28;20210;-81
2022/06/07 14:22:54;;;;;;;3.80;2.10;;;24.20;32.10;;;;;;10335237;28;20206;-80
2022/06/07 14:28:25;;;;;;;4.88;2.33;;;24.20;34.00;;;;;;10401022;28;20241;-84
2022/06/07 14:33:50;;;;;;;8.30;4.78;;;24.20;36.50;;;;;;10357394;28;20233;-87
2022/06/07 14:39:21;;;;;;;11.77;3.17;;;24.30;37.10;;;;;;10389291;28;20381;-80
2022/06/07 14:44:44;;;;;;;4.75;2.90;;;24.30;38.80;;;;;;10394342;28;20263;-84
2022/06/07 14:50:09;;;;;;;7.68;2.65;;;24.30;43.10;;;;;;10390742;28;20197;-87
2022/06/07 14:55:31;;;;;;;3.47;2.78;;;24.20;50.70;;;;;;10361118;28;20209;-88
2022/06/07 15:00:53;;;;;;;4.63;2.80;;;24.00;52.60;;;;;;10380501;28;20209;-91
2022/06/07 15:06:34;;;;;;;3.97;2.77;;;23.80;58.40;;;;;;10382155;28;20447;-83
2022/06/07 15:11:57;;;;;;;4.53;3.33;;;23.80;70.50;;;;;;10384233;28;20268;-83
2022/06/07 15:17:40;;;;;;;3.03;2.72;;;23.70;64.80;;;;;;10383547;28;20200;-83
2022/06/07 15:23:12;;;;;;;6.53;4.15;;;23.60;67.60;;;;;;10397225;28;20231;-84
2022/06/07 15:28:33;;;;;;;6.85;3.65;;;;;;;;;;10399140;28;20247;-83
2022/06/07 15:33:59;;;;;;;6.60;3.97;;;23.50;75.40;;;;;;10369400;28;20284;-89
2022/06/07 15:39:20;;;;;;;2.95;2.65;;;23.40;77.90;;;;;;10378540;28;20190;-83
2022/06/07 15:44:52;;;;;;;4.55;3.40;;;23.40;81.60;;;;;;10391459;28;20332;-84
2022/06/07 15:50:19;;;;;;;8.05;5.45;;;23.20;88.50;;;;;;10380981;28;20401;-83
2022/06/07 15:55:41;;;;;;;5.95;4.47;;;23.20;90.50;;;;;;10355998;28;20413;-83
2022/06/07 16:01:03;;;;;;;10.60;8.40;;;;;;;;;;10368761;28;20430;-82
2022/06/07 16:06:26;;;;;;;11.27;5.68;;;22.90;91.80;;;;;;10356303;28;20285;-83
2022/06/07 16:11:48;;;;;;;5.40;4.15;;;22.80;92.20;;;;;;10341407;28;20197;-82
2022/06/07 16:17:09;;;;;;;5.68;4.05;;;22.70;93.70;;;;;;10355067;28;20224;-92
2022/06/07 16:22:31;;;;;;;4.85;3.30;;;22.70;94.20;;;;;;10358377;28;20189;-83
2022/06/07 16:33:35;;;;;;;5.25;4.57;;;22.60;96.30;;;;;;10392618;28;20243;-83
2022/06/07 16:38:58;;;;;;;9.25;5.38;;;22.70;97.80;;;;;;10395510;28;20227;-85
2022/06/07 16:44:20;;;;;;;6.68;6.00;;;22.60;99.90;;;;;;10381183;28;20231;-83
2022/06/07 16:49:43;;;;;;;11.32;7.97;;;22.60;99.90;;;;;;10381111;28;20196;-82
2022/06/07 16:55:05;;;;;;;9.43;7.50;;;22.50;99.90;;;;;;10380626;28;20483;-82
2022/06/07 17:00:26;;;;;;;14.93;9.27;;;22.30;1.00;;;;;;10380936;28;20201;-83
2022/06/07 17:05:48;;;;;;;10.98;8.60;;;22.10;1.00;;;;;;10381132;28;20217;-84
2022/06/07 17:11:09;;;;;;;9.13;7.97;;;22.00;1.00;;;;;;10402621;28;20192;-82
2022/06/07 17:16:31;;;;;;;9.50;8.45;;;21.90;1.00;;;;;;10402425;28;20227;-82
2022/06/07 17:21:53;;;;;;;9.35;8.27;;;21.80;1.00;;;;;;10373814;28;20232;-82
2022/06/07 17:27:15;;;;;;;9.75;8.52;;;21.70;1.00;;;;;;10404366;28;20241;-90
2022/06/07 17:32:38;;;;;;;10.15;8.55;;;21.60;1.00;;;;;;10376770;28;20197;-82
2022/06/07 17:38:01;;;;;;;11.18;9.75;;;21.60;1.00;;;;;;10387476;28;20197;-82
2022/06/07 17:43:22;;;;;;;12.65;8.35;;;21.60;1.00;;;;;;10387725;28;20224;-81
2022/06/07 17:48:44;;;;;;;12.55;9.15;;;21.30;1.00;;;;;;10395550;28;20421;-81
2022/06/07 17:54:05;;;;;;;12.13;8.95;;;21.20;1.00;;;;;;10413878;28;20193;-83
2022/06/07 17:59:26;;;;;;;13.73;9.32;;;21.00;1.00;;;;;;10387039;28;20197;-83
2022/06/07 18:04:48;;;;;;;15.82;10.23;;;20.90;1.00;;;;;;10372692;28;20228;-81
2022/06/07 18:10:13;;;;;;;16.02;9.63;;;20.80;1.00;;;;;;10386508;28;20220;-81
2022/06/07 18:15:37;;;;;;;14.63;10.32;;;20.70;1.00;;;;;;10386702;28;20212;-81
2022/06/07 18:21:01;;;;;;;18.30;11.07;;;20.60;1.00;;;;;;10381853;28;21077;-82
2022/06/07 18:26:22;;;;;;;12.05;10.52;;;20.40;1.00;;;;;;10370245;28;20236;-92
2022/06/07 18:31:46;;;;;;;12.20;9.55;;;20.30;1.00;;;;;;10386513;28;20205;-82
2022/06/07 18:37:08;;;;;;;11.10;10.00;;;20.20;1.00;;;;;;10372613;28;20200;-82
2022/06/07 18:42:29;;;;;;;13.60;9.90;;;20.10;1.00;;;;;;10398631;28;20189;-85
2022/06/07 18:47:50;;;;;;;17.35;11.38;;;20.00;1.00;;;;;;10371506;28;20296;-82
2022/06/07 18:53:25;;;;;;;13.43;10.73;;;20.00;1.00;;;;;;10371403;28;20196;-82
2022/06/07 18:58:46;;;;;;;16.77;11.75;;;19.90;1.00;;;;;;10385557;28;20213;-82
2022/06/07 19:04:09;;;;;;;14.32;11.75;;;19.70;1.00;;;;;;10371023;28;20240;-84
2022/06/07 19:09:31;;;;;;;15.20;10.90;;;19.60;4.90;;;;;;10385349;28;20209;-82
2022/06/07 19:14:52;;;;;;;12.57;10.50;;;19.60;11.00;;;;;;10399641;28;20236;-82
2022/06/07 19:20:14;;;;;;;11.05;9.88;;;19.50;15.00;;;;;;10386736;28;20240;-83
2022/06/07 19:25:37;;;;;;;11.95;10.73;;;19.50;14.00;;;;;;10373085;28;20232;-82
2022/06/07 19:31:00;;;;;;;10.98;9.85;;;19.40;15.80;;;;;;10375475;28;20205;-83
2022/06/07 19:36:23;;;;;;;13.30;10.73;;;19.30;27.50;;;;;;10384910;28;20208;-82
2022/06/07 19:41:46;;;;;;;11.68;10.00;;;19.20;29.10;;;;;;10383749;28;20217;-83
2022/06/07 19:47:08;;;;;;;15.48;10.55;;;19.20;34.30;;;;;;10329524;28;20528;-91
2022/06/07 19:52:34;;;;;;;12.27;10.48;;;19.10;28.30;;;;;;10363398;28;20507;-82
2022/06/07 19:57:56;;;;;;;13.00;10.45;;;19.10;37.10;;;;;;10383135;28;20514;-82
2022/06/07 20:03:17;;;;;;;12.38;11.18;;;19.10;40.40;;;;;;10402798;28;20490;-81
2022/06/07 20:08:38;;;;;;;15.25;12.52;;;19.00;46.20;;;;;;10423821;28;20208;-82
2022/06/07 20:13:59;;;;;;;14.05;12.38;;;19.00;40.10;;;;;;10386864;28;20193;-83
2022/06/07 20:19:21;;;;;;;15.57;13.52;;;19.00;41.30;;;;;;10382185;28;20364;-82
2022/06/07 20:24:42;;;;;;;14.88;13.23;;;18.90;43.40;;;;;;10396796;28;20228;-85
2022/06/07 20:30:08;;;;;;;13.60;10.75;;;18.80;48.30;;;;;;10396168;28;20228;-83
2022/06/07 20:35:29;;;;;;;12.63;11.32;;;18.80;50.00;;;;;;10395273;28;20213;-83
2022/06/07 20:40:52;;;;;;;14.27;11.30;;;18.80;46.90;;;;;;10380287;28;20250;-82
2022/06/07 20:46:13;;;;;;;12.95;11.55;;;18.80;52.60;;;;;;10380950;28;20239;-82
2022/06/07 20:51:35;;;;;;;11.50;10.35;;;18.70;63.90;;;;;;10395186;28;20240;-81
2022/06/07 20:56:56;;;;;;;14.25;11.73;;;18.70;74.60;;;;;;10367350;28;20491;-81
2022/06/07 21:02:23;;;;;;;14.07;11.25;;;18.80;68.00;;;;;;10366886;28;20200;-85
2022/06/07 21:07:45;;;;;;;15.50;11.90;;;18.70;88.20;;;;;;10380719;28;20530;-83
2022/06/07 21:13:06;;;;;;;13.57;11.45;;;18.60;94.60;;;;;;10379682;28;20195;-82
2022/06/07 21:18:28;;;;;;;12.70;11.30;;;18.60;95.80;;;;;;10394504;28;20203;-82
2022/06/07 21:23:53;;;;;;;13.48;12.05;;;18.60;99.40;;;;;;10367231;28;20220;-83
2022/06/07 21:29:14;;;;;;;23.35;16.35;;;18.60;99.90;;;;;;10410132;28;20616;-85
2022/06/07 21:34:35;;;;;;;14.90;13.20;;;18.60;97.30;;;;;;10380190;28;20392;-83
2022/06/07 21:39:56;;;;;;;13.52;11.77;;;18.60;99.60;;;;;;10379419;28;20220;-83
2022/06/07 21:45:18;;;;;;;16.27;14.57;;;18.60;99.50;;;;;;10393861;28;20366;-81
2022/06/07 21:50:40;;;;;;;13.70;12.30;;;18.60;99.90;;;;;;10380113;28;20217;-83
2022/06/07 21:56:02;;;;;;;12.10;10.35;;;18.60;99.40;;;;;;10398598;28;20384;-85
2022/06/07 22:01:23;;;;;;;10.93;9.70;;;18.60;95.80;;;;;;10386938;28;20207;-91
2022/06/07 22:06:46;;;;;;;13.15;10.45;;;18.60;98.70;;;;;;10373118;28;20228;-83
2022/06/07 22:12:07;;;;;;;11.27;10.13;;;18.50;95.60;;;;;;10393113;28;20267;-82
2022/06/07 22:17:29;;;;;;;10.40;9.32;;;18.60;96.10;;;;;;10396153;28;20550;-82
2022/06/07 22:22:50;;;;;;;13.77;11.30;;;18.60;97.90;;;;;;10393590;28;20200;-86
2022/06/07 22:28:12;;;;;;;21.48;18.45;;;18.50;99.50;;;;;;10388420;28;20268;-83
2022/06/07 22:33:34;;;;;;;36.03;29.92;;;18.50;99.90;;;;;;10371908;28;20193;-83
2022/06/07 22:38:55;;;;;;;28.98;23.65;;;18.50;99.90;;;;;;10399413;28;20200;-84
2022/06/07 22:44:18;;;;;;;19.42;16.48;;;18.40;99.90;;;;;;10399169;28;20522;-83
2022/06/07 22:49:40;;;;;;;14.40;12.85;;;18.50;99.90;;;;;;10371556;28;20198;-82
2022/06/07 22:55:11;;;;;;;11.57;10.38;;;18.40;99.90;;;;;;10385206;28;20193;-85
2022/06/07 23:00:32;;;;;;;10.02;8.85;;;18.50;99.90;;;;;;10384739;28;20228;-82
2022/06/07 23:05:55;;;;;;;10.80;9.70;;;18.50;99.90;;;;;;10383891;28;20229;-83
2022/06/07 23:11:17;;;;;;;11.05;9.98;;;18.50;99.90;;;;;;10397708;28;20248;-82
2022/06/07 23:22:21;;;;;;;11.77;9.63;;;18.40;99.90;;;;;;10397514;28;20202;-84
2022/06/07 23:27:42;;;;;;;12.75;9.32;;;18.30;99.90;;;;;;10386124;28;20248;-82
2022/06/07 23:33:04;;;;;;;10.38;8.52;;;18.30;99.90;;;;;;10397242;28;20224;-84
2022/06/07 23:38:25;;;;;;;11.50;8.18;;;18.40;99.90;;;;;;10369227;28;20205;-84
2022/06/07 23:43:47;;;;;;;12.10;8.48;;;18.40;96.20;;;;;;10382910;28;20247;-84
2022/06/07 23:49:16;;;;;;;9.40;8.18;;;18.40;91.00;;;;;;10383140;28;20228;-87
2022/06/07 23:54:37;;;;;;;9.88;8.75;;;18.30;90.30;;;;;;10397510;28;20422;-83
